This is the latest recevied weather packets stored in our database for station/object VK3BYD-3. If no packets are shown the sender has not sent any weather packets the latest 10 day(s).
| Time | Temp. | Humidity | Pressure | Rain* | Wind** | Luminosity | Snow |
|---|---|---|---|---|---|---|---|
| 1777897914 | 12.22° C | 82% | 1016.5 hPa | 0 mm | - | - | - |
| 1777897015 | 13.33° C | 80% | 1016.6 hPa | 0 mm | - | - | - |
| 1777896115 | 13.89° C | 80% | 1016.6 hPa | 0 mm | - | - | - |
| 1777895214 | 13.89° C | 81% | 1016.5 hPa | 0 mm | - | - | - |
| 1777894314 | 13.89° C | 81% | 1016.3 hPa | 0 mm | - | - | - |
| 1777893414 | 13.33° C | 82% | 1016.1 hPa | 0 mm | - | - | - |
| 1777892515 | 13.89° C | 80% | 1015.8 hPa | 0 mm | - | - | - |
| 1777891613 | 14.44° C | 78% | 1015.7 hPa | 0 mm | - | - | - |
| 1777890710 | 14.44° C | 78% | 1015.5 hPa | 0 mm | - | - | - |
| 1777889810 | 15° C | 77% | 1015.5 hPa | 0 mm | - | - | - |
| 1777888910 | 14.44° C | 79% | 1015.1 hPa | 0 mm | - | - | - |
| 1777888010 | 13.89° C | 81% | 1014.9 hPa | 0 mm | - | - | - |
| 1777887110 | 13.33° C | 83% | 1014.8 hPa | 0 mm | - | - | - |
| 1777886209 | 12.22° C | 87% | 1014.7 hPa | 0 mm | - | - | - |
| 1777885306 | 12.22° C | 88% | 1014.5 hPa | 0 mm | - | - | - |
| 1777884406 | 11.67° C | 87% | 1014.3 hPa | 0 mm | - | - | - |
| 1777883506 | 12.22° C | 85% | 1014.2 hPa | 0 mm | - | - | - |
| 1777882604 | 12.78° C | 82% | 1014 hPa | 0 mm | - | - | - |
| 1777881702 | 13.89° C | 79% | 1013.8 hPa | 0 mm | - | - | - |
| 1777880800 | 15° C | 77% | 1013.6 hPa | 0 mm | - | - | - |
| 1777879898 | 15.56° C | 74% | 1013.5 hPa | 0 mm | - | - | - |
| 1777878998 | 16.11° C | 73% | 1013.3 hPa | 0 mm | - | - | - |
| 1777878098 | 16.67° C | 72% | 1013.2 hPa | 0 mm | - | - | - |
| 1777877198 | 17.22° C | 72% | 1013.2 hPa | 0 mm | - | - | - |
| 1777876298 | 17.22° C | 71% | 1013.2 hPa | 0 mm | - | - | - |
* Rain latest hour (hover to see other rain measurements)
** Current wind speed in m/s (hover to see current wind gust speed)